Time;durP1;ratioP1;P1;durP2;ratioP2;P2;SDS_P1;SDS_P2;PMS_P1;PMS_P2;Temp;Humidity;BMP_temperature;BMP_pressure;BME280_temperature;BME280_humidity;BME280_pressure;Samples;Min_cycle;Max_cycle;Signal;HPM_P1;HPM_P2
2020/12/01 00:00:54;;;;;;;0.20;0.20;;;;;;;;;;5078765;28;20252;-70
2020/12/01 00:03:21;;;;;;;0.20;0.20;;;;;;;;;;5074323;28;20334;-70
2020/12/01 00:05:47;;;;;;;0.20;0.20;;;;;;;;;;5075418;28;20198;-70
2020/12/01 00:08:14;;;;;;;0.20;0.20;;;;;;;;;;5071672;28;20242;-70
2020/12/01 00:10:40;;;;;;;0.20;0.20;;;;;;;;;;5110615;28;20273;-70
2020/12/01 00:13:07;;;;;;;0.20;0.20;;;;;;;;;;5073605;28;20528;-70
2020/12/01 00:15:33;;;;;;;0.47;0.47;;;;;;;;;;5075100;28;20452;-70
2020/12/01 00:18:01;;;;;;;0.20;0.20;;;;;;;;;;5085054;28;20287;-70
2020/12/01 00:20:27;;;;;;;0.23;0.23;;;;;;;;;;5076329;28;20205;-70
2020/12/01 00:22:54;;;;;;;0.20;0.20;;;;;;;;;;5074014;28;20246;-70
2020/12/01 00:25:21;;;;;;;0.40;0.40;;;;;;;;;;5111692;28;20349;-70
2020/12/01 00:27:47;;;;;;;0.60;0.60;;;;;;;;;;5075604;28;20401;-70
2020/12/01 00:30:15;;;;;;;0.40;0.40;;;;;;;;;;5079252;28;20202;-70
2020/12/01 00:32:41;;;;;;;0.20;0.20;;;;;;;;;;5099873;28;20210;-70
2020/12/01 00:35:09;;;;;;;0.20;0.20;;;;;;;;;;5093621;28;20557;-70
2020/12/01 00:37:36;;;;;;;0.20;0.20;;;;;;;;;;5107017;28;20199;-70
2020/12/01 00:40:03;;;;;;;0.60;0.60;;;;;;;;;;5073896;28;20240;-70
2020/12/01 00:42:30;;;;;;;1.93;1.93;;;;;;;;;;5077055;28;20237;-70
2020/12/01 00:44:56;;;;;;;0.20;0.20;;;;;;;;;;5073022;28;20396;-70
2020/12/01 00:47:23;;;;;;;0.30;0.30;;;;;;;;;;5075244;28;20230;-70
2020/12/01 00:49:49;;;;;;;3.10;0.77;;;;;;;;;;5074966;28;20233;-70
2020/12/01 00:52:16;;;;;;;0.30;0.30;;;;;;;;;;5078724;28;20230;-70
2020/12/01 00:54:43;;;;;;;0.30;0.30;;;;;;;;;;5078792;28;20209;-70
2020/12/01 00:57:09;;;;;;;0.30;0.30;;;;;;;;;;5080642;28;20278;-70
2020/12/01 00:59:36;;;;;;;0.47;0.47;;;;;;;;;;5080090;28;20213;-70
2020/12/01 01:02:02;;;;;;;0.20;0.20;;;;;;;;;;5082834;28;20509;-70
2020/12/01 01:04:28;;;;;;;0.30;0.30;;;;;;;;;;5097432;28;20233;-70
2020/12/01 01:06:55;;;;;;;0.20;0.20;;;;;;;;;;5082599;28;20265;-70
2020/12/01 01:09:22;;;;;;;0.30;0.30;;;;;;;;;;5095946;28;20541;-70
2020/12/01 01:11:48;;;;;;;0.20;0.20;;;;;;;;;;5080308;28;20305;-70
2020/12/01 01:14:15;;;;;;;0.20;0.20;;;;;;;;;;5080642;28;20222;-70
2020/12/01 01:16:42;;;;;;;0.20;0.20;;;;;;;;;;5080416;28;20203;-70
2020/12/01 01:19:09;;;;;;;0.23;0.23;;;;;;;;;;5080277;28;20199;-70
2020/12/01 01:21:38;;;;;;;0.27;0.27;;;;;;;;;;5077566;28;20210;-70
2020/12/01 01:24:05;;;;;;;0.20;0.20;;;;;;;;;;5101570;28;20310;-70
2020/12/01 01:26:32;;;;;;;0.30;0.30;;;;;;;;;;5078560;28;20209;-70
2020/12/01 01:28:58;;;;;;;3.63;3.30;;;;;;;;;;5081405;28;20199;-70
2020/12/01 01:31:25;;;;;;;0.20;0.20;;;;;;;;;;5094300;28;20227;-70
2020/12/01 01:33:51;;;;;;;0.50;0.50;;;;;;;;;;5080431;28;20191;-70
2020/12/01 01:36:18;;;;;;;0.23;0.23;;;;;;;;;;5068469;28;20240;-70
2020/12/01 01:38:44;;;;;;;0.20;0.20;;;;;;;;;;5080375;28;20206;-70
2020/12/01 01:41:10;;;;;;;0.30;0.30;;;;;;;;;;5089459;28;20481;-70
2020/12/01 01:43:38;;;;;;;0.20;0.20;;;;;;;;;;5110100;28;20219;-70
2020/12/01 01:46:24;;;;;;;0.20;0.20;;;;;;;;;;5079325;28;20202;-70
2020/12/01 01:48:50;;;;;;;0.20;0.20;;;;;;;;;;5091857;28;20195;-70
2020/12/01 01:51:18;;;;;;;0.40;0.40;;;;;;;;;;5108099;28;20260;-70
2020/12/01 01:53:47;;;;;;;0.30;0.30;;;;;;;;;;5100559;28;20257;-70
2020/12/01 01:56:15;;;;;;;0.23;0.23;;;;;;;;;;5080672;28;20489;-70
2020/12/01 01:58:45;;;;;;;0.20;0.20;;;;;;;;;;5096008;28;20309;-70
2020/12/01 02:01:12;;;;;;;0.20;0.20;;;;;;;;;;5112667;28;20218;-70
2020/12/01 02:03:40;;;;;;;0.20;0.20;;;;;;;;;;5078302;28;20260;-70
2020/12/01 02:06:13;;;;;;;0.20;0.20;;;;;;;;;;5110300;28;20198;-69
2020/12/01 02:08:41;;;;;;;0.20;0.20;;;;;;;;;;5092484;28;20443;-70
2020/12/01 02:11:09;;;;;;;1.13;1.13;;;;;;;;;;5078319;28;20266;-71
2020/12/01 02:13:38;;;;;;;0.20;0.20;;;;;;;;;;5079945;28;20385;-70
2020/12/01 02:16:06;;;;;;;0.60;0.60;;;;;;;;;;5097700;28;20244;-70
2020/12/01 02:18:38;;;;;;;1.67;1.57;;;;;;;;;;5073834;28;20203;-70
2020/12/01 02:21:21;;;;;;;0.30;0.30;;;;;;;;;;5098387;28;20305;-70
2020/12/01 02:23:47;;;;;;;0.67;0.67;;;;;;;;;;5088410;28;20250;-70
2020/12/01 02:26:14;;;;;;;0.27;0.27;;;;;;;;;;5088556;28;20478;-70
2020/12/01 02:28:41;;;;;;;0.20;0.20;;;;;;;;;;5076141;28;20282;-69
2020/12/01 02:31:07;;;;;;;0.50;0.50;;;;;;;;;;5072446;28;20207;-69
2020/12/01 02:33:34;;;;;;;0.30;0.30;;;;;;;;;;5071238;28;20206;-69
2020/12/01 02:36:00;;;;;;;0.30;0.30;;;;;;;;;;5070934;28;20474;-68
2020/12/01 02:38:27;;;;;;;0.20;0.20;;;;;;;;;;5074661;28;20254;-68
2020/12/01 02:40:53;;;;;;;0.20;0.20;;;;;;;;;;5077465;28;20222;-69
2020/12/01 02:43:20;;;;;;;0.20;0.20;;;;;;;;;;5074519;28;20343;-68
2020/12/01 02:45:47;;;;;;;0.20;0.20;;;;;;;;;;5072890;28;20310;-69
2020/12/01 02:48:13;;;;;;;0.20;0.20;;;;;;;;;;5078421;28;20461;-69
2020/12/01 02:50:40;;;;;;;0.27;0.27;;;;;;;;;;5085974;28;20204;-69
2020/12/01 02:53:07;;;;;;;0.40;0.40;;;;;;;;;;5069425;28;20226;-68
2020/12/01 02:55:33;;;;;;;0.20;0.20;;;;;;;;;;5073818;28;20210;-69
2020/12/01 02:58:00;;;;;;;0.20;0.20;;;;;;;;;;5078112;28;20203;-70
2020/12/01 03:00:27;;;;;;;0.43;0.43;;;;;;;;;;5088122;28;20222;-68
2020/12/01 03:02:53;;;;;;;0.50;0.50;;;;;;;;;;5077096;28;20235;-69
2020/12/01 03:05:20;;;;;;;0.93;0.93;;;;;;;;;;5075882;28;20282;-70
2020/12/01 03:07:46;;;;;;;0.30;0.30;;;;;;;;;;5076272;28;20230;-69
2020/12/01 03:10:13;;;;;;;0.27;0.27;;;;;;;;;;5074720;28;20277;-70
2020/12/01 03:12:40;;;;;;;0.20;0.20;;;;;;;;;;5078127;28;20313;-69
2020/12/01 03:15:10;;;;;;;0.23;0.23;;;;;;;;;;5073692;28;20277;-69
2020/12/01 03:17:37;;;;;;;0.30;0.30;;;;;;;;;;5097499;28;20198;-69
2020/12/01 03:20:04;;;;;;;0.20;0.20;;;;;;;;;;5066977;28;20241;-69
2020/12/01 03:22:30;;;;;;;0.40;0.40;;;;;;;;;;5089076;28;20266;-68
2020/12/01 03:24:57;;;;;;;0.20;0.20;;;;;;;;;;5077686;28;20281;-69
2020/12/01 03:27:23;;;;;;;0.20;0.20;;;;;;;;;;5076674;28;20230;-69
2020/12/01 03:29:49;;;;;;;0.40;0.40;;;;;;;;;;5078573;28;20273;-69
2020/12/01 03:32:15;;;;;;;0.20;0.20;;;;;;;;;;5088444;28;20286;-69
2020/12/01 03:34:43;;;;;;;0.20;0.20;;;;;;;;;;5095158;28;20252;-69
2020/12/01 03:37:09;;;;;;;0.20;0.20;;;;;;;;;;5092201;28;20206;-69
2020/12/01 03:39:36;;;;;;;0.20;0.20;;;;;;;;;;5080090;28;20230;-69
2020/12/01 03:42:02;;;;;;;0.20;0.20;;;;;;;;;;5075735;28;20273;-69
2020/12/01 03:44:29;;;;;;;0.60;0.60;;;;;;;;;;5064658;28;20250;-69
2020/12/01 03:46:56;;;;;;;0.20;0.20;;;;;;;;;;5076803;28;20273;-68
2020/12/01 03:49:22;;;;;;;0.20;0.20;;;;;;;;;;5077790;28;20205;-69
2020/12/01 03:51:50;;;;;;;0.20;0.20;;;;;;;;;;5075354;28;20202;-69
2020/12/01 03:54:16;;;;;;;0.20;0.20;;;;;;;;;;5094520;28;20248;-69
2020/12/01 03:56:43;;;;;;;0.20;0.20;;;;;;;;;;5107033;28;20230;-69
2020/12/01 03:59:09;;;;;;;0.30;0.30;;;;;;;;;;5070185;28;20225;-69
2020/12/01 04:01:35;;;;;;;0.20;0.20;;;;;;;;;;5075255;28;20230;-69
2020/12/01 04:04:02;;;;;;;0.20;0.20;;;;;;;;;;5074200;28;20474;-69
2020/12/01 04:06:28;;;;;;;0.23;0.23;;;;;;;;;;5079432;28;20285;-69
2020/12/01 04:08:56;;;;;;;0.20;0.20;;;;;;;;;;5075463;28;20237;-69
2020/12/01 04:11:24;;;;;;;0.23;0.23;;;;;;;;;;5077962;28;20226;-69
2020/12/01 04:13:51;;;;;;;0.20;0.20;;;;;;;;;;5075451;28;20520;-69
2020/12/01 04:16:18;;;;;;;0.20;0.20;;;;;;;;;;5077695;28;20230;-69
2020/12/01 04:18:44;;;;;;;0.20;0.20;;;;;;;;;;5107566;28;20202;-69
2020/12/01 04:21:11;;;;;;;0.23;0.23;;;;;;;;;;5075652;28;20207;-69
2020/12/01 04:23:37;;;;;;;0.30;0.30;;;;;;;;;;5106776;28;20246;-69
2020/12/01 04:26:04;;;;;;;0.20;0.20;;;;;;;;;;5075253;28;20214;-69
2020/12/01 04:28:31;;;;;;;0.20;0.20;;;;;;;;;;5090316;28;20238;-69
2020/12/01 04:30:57;;;;;;;0.27;0.27;;;;;;;;;;5082024;28;20237;-69
2020/12/01 04:33:24;;;;;;;0.20;0.20;;;;;;;;;;5081685;28;20230;-69
2020/12/01 04:35:50;;;;;;;2.43;2.33;;;;;;;;;;5077572;28;20230;-69
2020/12/01 04:38:17;;;;;;;0.20;0.20;;;;;;;;;;5081053;28;20221;-68
2020/12/01 04:40:44;;;;;;;0.30;0.30;;;;;;;;;;5084047;28;20202;-69
2020/12/01 04:43:14;;;;;;;0.40;0.40;;;;;;;;;;5081805;28;20202;-69
2020/12/01 04:45:41;;;;;;;0.23;0.23;;;;;;;;;;5098913;28;20238;-70
2020/12/01 04:48:11;;;;;;;0.50;0.50;;;;;;;;;;5096720;28;20222;-69
2020/12/01 04:50:39;;;;;;;0.20;0.20;;;;;;;;;;5094612;28;20252;-68
2020/12/01 04:53:25;;;;;;;0.30;0.30;;;;;;;;;;5080931;28;20604;-69
2020/12/01 04:56:04;;;;;;;17.30;2.73;;;;;;;;;;5095186;28;20310;-68
2020/12/01 04:58:44;;;;;;;4.70;3.43;;;;;;;;;;5085634;28;20238;-69
2020/12/01 05:01:12;;;;;;;0.20;0.20;;;;;;;;;;5102722;28;20267;-69
2020/12/01 05:03:53;;;;;;;0.20;0.20;;;;;;;;;;5104792;28;20254;-69
2020/12/01 05:06:41;;;;;;;0.73;0.47;;;;;;;;;;5104545;28;20542;-69
2020/12/01 05:09:09;;;;;;;0.30;0.30;;;;;;;;;;5097945;28;20202;-69
2020/12/01 05:11:43;;;;;;;0.40;0.40;;;;;;;;;;5091849;28;20321;-69
2020/12/01 05:14:16;;;;;;;0.20;0.20;;;;;;;;;;5094155;28;20404;-69
2020/12/01 05:16:50;;;;;;;0.93;0.93;;;;;;;;;;5089857;28;20278;-69
2020/12/01 05:19:28;;;;;;;0.97;0.97;;;;;;;;;;5084860;28;20234;-70
2020/12/01 05:21:55;;;;;;;0.20;0.20;;;;;;;;;;5090508;28;20282;-69
2020/12/01 05:24:21;;;;;;;0.20;0.20;;;;;;;;;;5079697;28;20289;-69
2020/12/01 05:26:47;;;;;;;0.20;0.20;;;;;;;;;;5075700;28;20532;-69
2020/12/01 05:29:23;;;;;;;1.70;1.70;;;;;;;;;;5079720;28;20263;-68
2020/12/01 05:31:49;;;;;;;0.20;0.20;;;;;;;;;;5095791;28;20412;-69
2020/12/01 05:34:17;;;;;;;0.93;0.93;;;;;;;;;;5080199;28;20203;-69
2020/12/01 05:36:43;;;;;;;0.20;0.20;;;;;;;;;;5078810;28;20436;-69
2020/12/01 05:39:15;;;;;;;0.20;0.20;;;;;;;;;;5079832;28;20199;-69
2020/12/01 05:41:42;;;;;;;0.23;0.23;;;;;;;;;;5092594;28;20207;-69
2020/12/01 05:44:15;;;;;;;1.03;1.03;;;;;;;;;;5093816;28;20293;-69
2020/12/01 05:46:43;;;;;;;0.30;0.30;;;;;;;;;;5106416;28;20241;-69
2020/12/01 05:49:23;;;;;;;0.20;0.20;;;;;;;;;;5081702;28;20489;-69
2020/12/01 05:51:53;;;;;;;0.20;0.20;;;;;;;;;;5108330;28;20213;-69
2020/12/01 05:54:22;;;;;;;1.53;1.53;;;;;;;;;;5096100;28;20249;-69
2020/12/01 05:56:50;;;;;;;0.20;0.20;;;;;;;;;;5076253;28;20213;-69
2020/12/01 05:59:17;;;;;;;0.20;0.20;;;;;;;;;;5114163;28;20226;-69
2020/12/01 06:01:45;;;;;;;0.37;0.37;;;;;;;;;;5104885;28;20572;-69
2020/12/01 06:04:12;;;;;;;0.20;0.20;;;;;;;;;;5095257;28;20249;-69
2020/12/01 06:06:57;;;;;;;0.23;0.23;;;;;;;;;;5098983;28;20313;-69
2020/12/01 06:09:33;;;;;;;0.20;0.20;;;;;;;;;;5096641;28;20204;-69
2020/12/01 06:12:04;;;;;;;0.20;0.20;;;;;;;;;;5094908;28;20477;-69
2020/12/01 06:14:36;;;;;;;0.73;0.73;;;;;;;;;;5089586;28;20556;-69
2020/12/01 06:17:05;;;;;;;1.03;1.03;;;;;;;;;;5097800;28;20202;-69
2020/12/01 06:19:35;;;;;;;0.30;0.30;;;;;;;;;;5106825;28;20241;-69
2020/12/01 06:22:32;;;;;;;0.20;0.20;;;;;;;;;;5093049;28;20393;-69
2020/12/01 06:25:19;;;;;;;3.80;3.50;;;;;;;;;;5097065;28;20346;-69
2020/12/01 06:28:00;;;;;;;0.90;0.83;;;;;;;;;;5095336;28;20481;-69
2020/12/01 06:30:46;;;;;;;0.27;0.27;;;;;;;;;;5096044;28;20198;-69
2020/12/01 06:33:24;;;;;;;0.20;0.20;;;;;;;;;;5092739;28;24493;-69
2020/12/01 06:36:05;;;;;;;0.30;0.30;;;;;;;;;;5093443;28;20207;-69
2020/12/01 06:38:43;;;;;;;1.67;1.57;;;;;;;;;;5089832;28;20512;-69
2020/12/01 06:41:12;;;;;;;0.27;0.27;;;;;;;;;;5109505;28;20451;-69
2020/12/01 06:43:39;;;;;;;0.20;0.20;;;;;;;;;;5110387;28;20309;-69
2020/12/01 06:46:19;;;;;;;0.20;0.20;;;;;;;;;;5097676;28;20241;-69
2020/12/01 06:48:48;;;;;;;0.40;0.40;;;;;;;;;;5094965;28;20240;-69
2020/12/01 06:51:15;;;;;;;0.30;0.30;;;;;;;;;;5094743;28;20273;-69
2020/12/01 06:53:42;;;;;;;1.80;1.17;;;;;;;;;;5078625;28;20195;-70
2020/12/01 06:56:14;;;;;;;0.20;0.20;;;;;;;;;;5089903;28;20490;-69
2020/12/01 06:58:40;;;;;;;0.30;0.30;;;;;;;;;;5095776;28;20203;-69
2020/12/01 07:01:13;;;;;;;0.20;0.20;;;;;;;;;;5108556;28;20230;-69
2020/12/01 07:03:39;;;;;;;1.70;1.70;;;;;;;;;;5078274;28;20253;-69
2020/12/01 07:06:11;;;;;;;0.83;0.83;;;;;;;;;;5102053;28;20428;-70
2020/12/01 07:08:37;;;;;;;0.30;0.30;;;;;;;;;;5105608;28;20509;-69
2020/12/01 07:11:05;;;;;;;1.53;1.27;;;;;;;;;;5075858;28;20261;-69
2020/12/01 07:13:41;;;;;;;0.20;0.20;;;;;;;;;;5093766;28;20226;-69
2020/12/01 07:16:09;;;;;;;0.20;0.20;;;;;;;;;;5091220;28;20568;-69
2020/12/01 07:18:35;;;;;;;0.20;0.20;;;;;;;;;;5093536;28;20202;-70
2020/12/01 07:21:13;;;;;;;0.27;0.27;;;;;;;;;;5087295;28;20218;-73
2020/12/01 07:23:47;;;;;;;0.20;0.20;;;;;;;;;;5094370;28;20222;-71
2020/12/01 07:26:25;;;;;;;0.30;0.30;;;;;;;;;;5102790;28;20209;-71
2020/12/01 07:29:00;;;;;;;2.10;2.00;;;;;;;;;;5088997;28;20198;-70
2020/12/01 07:31:28;;;;;;;0.20;0.20;;;;;;;;;;5093789;28;20206;-70
2020/12/01 07:33:56;;;;;;;1.23;1.13;;;;;;;;;;5093911;28;20194;-71
2020/12/01 07:36:35;;;;;;;0.20;0.20;;;;;;;;;;5088170;28;20226;-71
2020/12/01 07:39:11;;;;;;;0.30;0.30;;;;;;;;;;5086876;28;20494;-71
2020/12/01 07:41:45;;;;;;;0.20;0.20;;;;;;;;;;5089164;28;20260;-71
2020/12/01 07:44:14;;;;;;;0.20;0.20;;;;;;;;;;5094735;28;20277;-70
2020/12/01 07:46:48;;;;;;;0.20;0.20;;;;;;;;;;5101546;28;20219;-70
2020/12/01 07:49:14;;;;;;;0.20;0.20;;;;;;;;;;5094442;28;20411;-67
2020/12/01 07:51:41;;;;;;;0.20;0.20;;;;;;;;;;5097851;28;20270;-70
2020/12/01 07:54:08;;;;;;;0.20;0.20;;;;;;;;;;5077206;28;20221;-71
2020/12/01 07:56:38;;;;;;;0.20;0.20;;;;;;;;;;5100660;28;20200;-68
2020/12/01 07:59:06;;;;;;;0.20;0.20;;;;;;;;;;5093797;28;20237;-69
2020/12/01 08:01:33;;;;;;;0.20;0.20;;;;;;;;;;5075568;28;20226;-72
2020/12/01 08:04:06;;;;;;;0.20;0.20;;;;;;;;;;5077495;28;20229;-71
2020/12/01 08:06:33;;;;;;;1.47;1.47;;;;;;;;;;5106530;28;20206;-70
2020/12/01 08:09:01;;;;;;;0.20;0.20;;;;;;;;;;5102883;28;20210;-70
2020/12/01 08:11:27;;;;;;;0.20;0.20;;;;;;;;;;5092702;28;20469;-70
2020/12/01 08:13:54;;;;;;;0.20;0.20;;;;;;;;;;5059424;28;20252;-70
2020/12/01 08:16:23;;;;;;;0.20;0.20;;;;;;;;;;5077176;28;20368;-70
2020/12/01 08:18:51;;;;;;;0.20;0.20;;;;;;;;;;5079631;28;20485;-69
2020/12/01 08:21:19;;;;;;;0.20;0.20;;;;;;;;;;5079965;28;20230;-71
2020/12/01 08:23:46;;;;;;;0.20;0.20;;;;;;;;;;5084410;28;20226;-69
2020/12/01 08:26:18;;;;;;;0.53;0.53;;;;;;;;;;5079991;28;20243;-70
2020/12/01 08:28:46;;;;;;;0.20;0.20;;;;;;;;;;5087084;28;20282;-71
2020/12/01 08:31:15;;;;;;;0.30;0.30;;;;;;;;;;5093235;28;20198;-71
2020/12/01 08:33:49;;;;;;;0.20;0.20;;;;;;;;;;5091823;28;20207;-70
2020/12/01 08:36:20;;;;;;;0.20;0.20;;;;;;;;;;5092703;28;20202;-72
2020/12/01 08:38:59;;;;;;;0.20;0.20;;;;;;;;;;5102205;28;20206;-70
2020/12/01 08:41:32;;;;;;;0.20;0.20;;;;;;;;;;5094279;28;20301;-70
2020/12/01 08:44:03;;;;;;;0.20;0.20;;;;;;;;;;5091935;28;20306;-71
2020/12/01 08:46:29;;;;;;;0.20;0.20;;;;;;;;;;5108935;28;20206;-70
2020/12/01 08:49:06;;;;;;;0.20;0.20;;;;;;;;;;5101010;28;20229;-69
2020/12/01 08:51:33;;;;;;;0.20;0.20;;;;;;;;;;5095179;28;20231;-69
2020/12/01 08:54:05;;;;;;;0.20;0.20;;;;;;;;;;5071446;28;20237;-70
2020/12/01 08:56:39;;;;;;;0.20;0.20;;;;;;;;;;5091939;28;20230;-69
2020/12/01 08:59:07;;;;;;;1.80;1.80;;;;;;;;;;5095304;28;20206;-68
2020/12/01 09:01:41;;;;;;;0.20;0.20;;;;;;;;;;5075737;28;20416;-69
2020/12/01 09:04:18;;;;;;;0.23;0.23;;;;;;;;;;5091761;28;20509;-69
2020/12/01 09:06:44;;;;;;;0.30;0.30;;;;;;;;;;5093916;28;20492;-70
2020/12/01 09:09:17;;;;;;;0.20;0.20;;;;;;;;;;5075739;28;20225;-70
2020/12/01 09:12:08;;;;;;;0.20;0.20;;;;;;;;;;5093396;28;20243;-70
2020/12/01 09:14:53;;;;;;;0.20;0.20;;;;;;;;;;5099359;28;20329;-69
2020/12/01 09:17:27;;;;;;;0.30;0.30;;;;;;;;;;5101054;28;20233;-69
2020/12/01 09:20:15;;;;;;;0.20;0.20;;;;;;;;;;5100811;28;20240;-69
2020/12/01 09:22:41;;;;;;;0.20;0.20;;;;;;;;;;5102873;28;20202;-69
2020/12/01 09:25:13;;;;;;;0.20;0.20;;;;;;;;;;5080459;28;20263;-69
2020/12/01 09:27:40;;;;;;;0.20;0.20;;;;;;;;;;5112620;28;20245;-69
2020/12/01 09:30:14;;;;;;;0.20;0.20;;;;;;;;;;5082914;28;20210;-69
2020/12/01 09:32:41;;;;;;;0.20;0.20;;;;;;;;;;5092777;28;20229;-69
2020/12/01 09:35:08;;;;;;;0.40;0.40;;;;;;;;;;5083338;28;20201;-69
2020/12/01 09:37:35;;;;;;;0.20;0.20;;;;;;;;;;5080476;28;20206;-70
2020/12/01 09:40:02;;;;;;;0.20;0.20;;;;;;;;;;5078319;28;20263;-69
2020/12/01 09:42:39;;;;;;;0.20;0.20;;;;;;;;;;5079099;28;20224;-69
2020/12/01 09:45:17;;;;;;;0.20;0.20;;;;;;;;;;5091838;28;20237;-69
2020/12/01 09:47:45;;;;;;;0.33;0.33;;;;;;;;;;5097133;28;20209;-69
2020/12/01 09:50:14;;;;;;;0.20;0.20;;;;;;;;;;5099887;28;20199;-70
2020/12/01 09:52:58;;;;;;;1.70;1.60;;;;;;;;;;5086541;28;20213;-69
2020/12/01 09:55:52;;;;;;;0.40;0.40;;;;;;;;;;5100922;28;20386;-70
2020/12/01 09:58:48;;;;;;;0.30;0.30;;;;;;;;;;5095545;28;20211;-69
2020/12/01 10:09:38;;;;;;;0.40;0.40;;;;;;;;;;5096592;28;20402;-70
2020/12/01 10:26:10;;;;;;;0.20;0.20;;;;;;;;;;5053134;28;20222;-70
2020/12/01 10:34:29;;;;;;;2.03;0.77;;;;;;;;;;5093593;28;20206;-71
2020/12/01 10:36:56;;;;;;;0.20;0.20;;;;;;;;;;5098250;28;20234;-70
2020/12/01 10:39:23;;;;;;;0.23;0.23;;;;;;;;;;5076652;28;20225;-70
2020/12/01 10:41:50;;;;;;;0.20;0.20;;;;;;;;;;5093029;28;20386;-70
2020/12/01 10:44:17;;;;;;;0.20;0.20;;;;;;;;;;5075569;28;20245;-70
2020/12/01 10:46:45;;;;;;;1.73;1.73;;;;;;;;;;5080009;28;20245;-70
2020/12/01 10:49:11;;;;;;;0.20;0.20;;;;;;;;;;5094798;28;20214;-70
2020/12/01 10:51:38;;;;;;;0.60;0.60;;;;;;;;;;5079164;28;20265;-71
2020/12/01 10:54:05;;;;;;;0.20;0.20;;;;;;;;;;5066557;28;20387;-70
2020/12/01 10:56:32;;;;;;;0.20;0.20;;;;;;;;;;5067816;28;20204;-70
2020/12/01 10:58:58;;;;;;;0.20;0.20;;;;;;;;;;5078283;28;20511;-71
2020/12/01 11:01:25;;;;;;;0.20;0.20;;;;;;;;;;5106935;28;20257;-70
2020/12/01 11:03:51;;;;;;;0.20;0.20;;;;;;;;;;5111783;28;20195;-71
2020/12/01 11:06:18;;;;;;;0.20;0.20;;;;;;;;;;5076341;28;20214;-70
2020/12/01 11:08:44;;;;;;;0.20;0.20;;;;;;;;;;5081406;28;20222;-70
2020/12/01 11:11:15;;;;;;;0.20;0.20;;;;;;;;;;5094328;28;20302;-71
2020/12/01 11:13:42;;;;;;;0.20;0.20;;;;;;;;;;5100022;28;20355;-69
2020/12/01 11:16:09;;;;;;;0.20;0.20;;;;;;;;;;5076000;28;20251;-69
2020/12/01 11:18:35;;;;;;;0.90;0.90;;;;;;;;;;5078102;28;20396;-69
2020/12/01 11:21:02;;;;;;;0.60;0.60;;;;;;;;;;5073855;28;20225;-68
2020/12/01 11:23:28;;;;;;;0.20;0.20;;;;;;;;;;5075079;28;20274;-68
2020/12/01 11:25:54;;;;;;;0.20;0.20;;;;;;;;;;5073255;28;21093;-67
2020/12/01 11:28:21;;;;;;;0.20;0.20;;;;;;;;;;5109302;28;20195;-67
2020/12/01 11:30:48;;;;;;;0.20;0.20;;;;;;;;;;5076526;28;20202;-68
2020/12/01 11:33:15;;;;;;;0.20;0.20;;;;;;;;;;5077873;28;20206;-68
2020/12/01 11:35:42;;;;;;;0.20;0.20;;;;;;;;;;5074769;28;20198;-68
2020/12/01 11:38:08;;;;;;;0.30;0.30;;;;;;;;;;5090341;28;20235;-68
2020/12/01 11:40:35;;;;;;;0.43;0.43;;;;;;;;;;5095000;28;20214;-68
2020/12/01 11:43:01;;;;;;;0.20;0.20;;;;;;;;;;5077846;28;20388;-70
2020/12/01 11:45:28;;;;;;;0.20;0.20;;;;;;;;;;5076413;28;20223;-67
2020/12/01 11:47:55;;;;;;;0.20;0.20;;;;;;;;;;5074149;28;20393;-68
2020/12/01 11:50:21;;;;;;;0.20;0.20;;;;;;;;;;5077597;28;20486;-68
2020/12/01 11:52:48;;;;;;;0.20;0.20;;;;;;;;;;5094624;28;20285;-67
2020/12/01 11:55:14;;;;;;;0.57;0.57;;;;;;;;;;5077468;28;20194;-68
2020/12/01 11:57:41;;;;;;;0.20;0.20;;;;;;;;;;5077288;28;20232;-67
2020/12/01 12:00:08;;;;;;;0.20;0.20;;;;;;;;;;5073368;28;20231;-67
2020/12/01 12:02:35;;;;;;;0.20;0.20;;;;;;;;;;5109248;28;20203;-67
2020/12/01 12:05:03;;;;;;;5.77;1.90;;;;;;;;;;5077676;28;20231;-66
2020/12/01 12:07:29;;;;;;;0.20;0.20;;;;;;;;;;5090834;28;20199;-67
2020/12/01 12:09:55;;;;;;;0.30;0.30;;;;;;;;;;5075000;28;20234;-68
2020/12/01 12:12:22;;;;;;;0.20;0.20;;;;;;;;;;5095862;28;20254;-68
2020/12/01 12:14:48;;;;;;;0.20;0.20;;;;;;;;;;5073093;28;20390;-68
2020/12/01 12:17:15;;;;;;;0.20;0.20;;;;;;;;;;5078980;28;20198;-68
2020/12/01 12:19:41;;;;;;;0.53;0.53;;;;;;;;;;5074370;28;20249;-68
2020/12/01 12:22:09;;;;;;;0.20;0.20;;;;;;;;;;5078429;28;20199;-67
2020/12/01 12:24:35;;;;;;;0.20;0.20;;;;;;;;;;5073974;28;20227;-68
2020/12/01 12:27:02;;;;;;;0.20;0.20;;;;;;;;;;5079345;28;20256;-68
2020/12/01 12:29:28;;;;;;;0.20;0.20;;;;;;;;;;5077281;28;20202;-68
2020/12/01 12:31:55;;;;;;;0.20;0.20;;;;;;;;;;5089182;28;20199;-69
2020/12/01 12:34:21;;;;;;;0.20;0.20;;;;;;;;;;5090888;28;20296;-69
2020/12/01 12:36:47;;;;;;;3.50;3.40;;;;;;;;;;5074234;28;20245;-68
2020/12/01 12:39:14;;;;;;;0.20;0.20;;;;;;;;;;5075724;28;20210;-69
2020/12/01 12:41:41;;;;;;;0.20;0.20;;;;;;;;;;5088209;28;20221;-69
2020/12/01 12:44:09;;;;;;;0.50;0.50;;;;;;;;;;5076607;28;20242;-69
2020/12/01 12:46:36;;;;;;;0.20;0.20;;;;;;;;;;5109658;28;20500;-68
2020/12/01 12:49:02;;;;;;;0.20;0.20;;;;;;;;;;5105707;28;20533;-69
2020/12/01 12:51:29;;;;;;;0.20;0.20;;;;;;;;;;5078133;28;20217;-71
2020/12/01 12:53:56;;;;;;;0.20;0.20;;;;;;;;;;5082916;28;20446;-72
2020/12/01 12:56:24;;;;;;;0.20;0.20;;;;;;;;;;5077710;28;20259;-71
2020/12/01 12:58:51;;;;;;;0.37;0.37;;;;;;;;;;5100713;28;20202;-71
2020/12/01 13:01:18;;;;;;;0.27;0.27;;;;;;;;;;5107567;28;20230;-71
2020/12/01 13:03:45;;;;;;;0.20;0.20;;;;;;;;;;5081113;28;20210;-70
2020/12/01 13:06:11;;;;;;;0.20;0.20;;;;;;;;;;5076920;28;20223;-71
2020/12/01 13:08:38;;;;;;;0.20;0.20;;;;;;;;;;5096691;28;20374;-71
2020/12/01 13:11:04;;;;;;;0.20;0.20;;;;;;;;;;5078502;28;20549;-72
2020/12/01 13:13:32;;;;;;;0.20;0.20;;;;;;;;;;5090226;28;20200;-73
2020/12/01 13:15:58;;;;;;;0.37;0.37;;;;;;;;;;5075252;28;20199;-73
2020/12/01 13:18:25;;;;;;;0.20;0.20;;;;;;;;;;5082166;28;20211;-71
2020/12/01 13:20:51;;;;;;;0.20;0.20;;;;;;;;;;5075258;28;20210;-71
2020/12/01 13:23:18;;;;;;;0.20;0.20;;;;;;;;;;5081017;28;20198;-68
2020/12/01 13:25:45;;;;;;;0.20;0.20;;;;;;;;;;5090035;28;20271;-69
2020/12/01 13:28:11;;;;;;;0.20;0.20;;;;;;;;;;5078149;28;20203;-68
2020/12/01 13:30:39;;;;;;;0.20;0.20;;;;;;;;;;5081239;28;20233;-68
2020/12/01 13:33:05;;;;;;;1.90;1.17;;;;;;;;;;5080673;28;20216;-69
2020/12/01 13:35:32;;;;;;;2.87;2.17;;;;;;;;;;5078862;28;20187;-69
2020/12/01 13:37:59;;;;;;;0.20;0.20;;;;;;;;;;5074772;28;20278;-68
2020/12/01 13:40:26;;;;;;;0.20;0.20;;;;;;;;;;5079293;28;20513;-70
2020/12/01 13:42:52;;;;;;;0.20;0.20;;;;;;;;;;5092132;28;20489;-69
2020/12/01 13:45:20;;;;;;;0.20;0.20;;;;;;;;;;5079819;28;20218;-69
2020/12/01 13:47:48;;;;;;;0.20;0.20;;;;;;;;;;5092446;28;20521;-69
2020/12/01 13:50:16;;;;;;;0.20;0.20;;;;;;;;;;5079683;28;20391;-69
2020/12/01 13:52:43;;;;;;;0.27;0.27;;;;;;;;;;5100302;28;20301;-70
2020/12/01 13:55:10;;;;;;;0.20;0.20;;;;;;;;;;5079051;28;20223;-69
2020/12/01 13:57:37;;;;;;;0.20;0.20;;;;;;;;;;5078652;28;20206;-69
2020/12/01 14:00:06;;;;;;;0.20;0.20;;;;;;;;;;5090985;28;20345;-69
2020/12/01 14:02:32;;;;;;;1.80;1.80;;;;;;;;;;5072444;28;20210;-69
2020/12/01 14:05:00;;;;;;;0.20;0.20;;;;;;;;;;5081847;28;20221;-69
2020/12/01 14:07:27;;;;;;;3.13;2.83;;;;;;;;;;5068458;28;20207;-69
2020/12/01 14:09:53;;;;;;;0.20;0.20;;;;;;;;;;5079706;28;20237;-69
2020/12/01 14:12:20;;;;;;;0.20;0.20;;;;;;;;;;5080371;28;20532;-69
2020/12/01 14:14:48;;;;;;;0.20;0.20;;;;;;;;;;5074930;28;20195;-69
2020/12/01 14:17:14;;;;;;;0.20;0.20;;;;;;;;;;5082424;28;20195;-68
2020/12/01 14:19:41;;;;;;;0.27;0.27;;;;;;;;;;5104838;28;20243;-69
2020/12/01 14:22:09;;;;;;;0.20;0.20;;;;;;;;;;5077814;28;20216;-69
2020/12/01 14:24:36;;;;;;;0.20;0.20;;;;;;;;;;5078367;28;20250;-68
2020/12/01 14:27:02;;;;;;;0.20;0.20;;;;;;;;;;5074606;28;20271;-69
2020/12/01 14:29:29;;;;;;;0.20;0.20;;;;;;;;;;5074954;28;20226;-69
2020/12/01 14:31:55;;;;;;;0.20;0.20;;;;;;;;;;5077293;28;20344;-70
2020/12/01 14:34:22;;;;;;;0.20;0.20;;;;;;;;;;5076680;28;20228;-70
2020/12/01 14:36:49;;;;;;;0.20;0.20;;;;;;;;;;5078590;28;20198;-69
2020/12/01 14:39:18;;;;;;;0.20;0.20;;;;;;;;;;5078414;28;20439;-69
2020/12/01 14:41:44;;;;;;;0.20;0.20;;;;;;;;;;5094507;28;20229;-68
2020/12/01 14:44:16;;;;;;;0.20;0.20;;;;;;;;;;5093467;28;20199;-69
2020/12/01 14:46:56;;;;;;;0.20;0.20;;;;;;;;;;5094091;28;20490;-69
2020/12/01 14:49:26;;;;;;;0.20;0.20;;;;;;;;;;5097562;28;20202;-68
2020/12/01 14:51:58;;;;;;;0.20;0.20;;;;;;;;;;5107027;28;20210;-68
2020/12/01 14:54:27;;;;;;;0.20;0.20;;;;;;;;;;5090187;28;20236;-69
2020/12/01 14:57:17;;;;;;;1.10;1.10;;;;;;;;;;5079990;28;20202;-68
2020/12/01 15:00:13;;;;;;;0.17;0.17;;;;;;;;;;5090991;28;20569;-70
2020/12/01 15:02:47;;;;;;;0.20;0.20;;;;;;;;;;5094137;28;20456;-69
2020/12/01 15:05:27;;;;;;;0.20;0.20;;;;;;;;;;5094208;28;20253;-68
2020/12/01 15:08:20;;;;;;;0.20;0.20;;;;;;;;;;5086169;28;20203;-69
2020/12/01 15:10:50;;;;;;;0.20;0.20;;;;;;;;;;5091115;28;20258;-68
2020/12/01 15:13:17;;;;;;;0.20;0.20;;;;;;;;;;5096202;28;20203;-69
2020/12/01 15:15:44;;;;;;;0.20;0.20;;;;;;;;;;5074261;28;20198;-69
2020/12/01 15:18:11;;;;;;;0.20;0.20;;;;;;;;;;5090978;28;20199;-69
2020/12/01 15:20:39;;;;;;;0.20;0.20;;;;;;;;;;5075808;28;20210;-69
2020/12/01 15:23:15;;;;;;;0.20;0.20;;;;;;;;;;5076977;28;20206;-69